sensor_id;sensor_type;location;lat;lon;timestamp;P1;durP1;ratioP1;P2;durP2;ratioP2
42098;SDS011;27758;55.900;8.516;2023-07-31T00:01:11;13.25;;;3.95;;
42098;SDS011;27758;55.900;8.516;2023-07-31T00:03:37;19.80;;;4.72;;
42098;SDS011;27758;55.900;8.516;2023-07-31T00:06:03;15.23;;;3.50;;
42098;SDS011;27758;55.900;8.516;2023-07-31T00:08:28;16.38;;;3.83;;
42098;SDS011;27758;55.900;8.516;2023-07-31T00:10:54;15.40;;;3.15;;
42098;SDS011;27758;55.900;8.516;2023-07-31T00:13:20;17.40;;;3.17;;
42098;SDS011;27758;55.900;8.516;2023-07-31T00:15:46;13.52;;;3.67;;
42098;SDS011;27758;55.900;8.516;2023-07-31T00:18:12;17.25;;;3.72;;
42098;SDS011;27758;55.900;8.516;2023-07-31T00:20:38;13.93;;;2.83;;
42098;SDS011;27758;55.900;8.516;2023-07-31T00:23:04;14.13;;;3.13;;
42098;SDS011;27758;55.900;8.516;2023-07-31T00:25:29;16.05;;;3.25;;
42098;SDS011;27758;55.900;8.516;2023-07-31T00:27:55;13.10;;;3.30;;
42098;SDS011;27758;55.900;8.516;2023-07-31T00:30:20;12.35;;;2.80;;
42098;SDS011;27758;55.900;8.516;2023-07-31T00:32:47;16.77;;;3.22;;
42098;SDS011;27758;55.900;8.516;2023-07-31T00:35:13;13.90;;;3.47;;
42098;SDS011;27758;55.900;8.516;2023-07-31T00:37:39;12.88;;;3.33;;
42098;SDS011;27758;55.900;8.516;2023-07-31T00:40:04;19.10;;;3.50;;
42098;SDS011;27758;55.900;8.516;2023-07-31T00:42:31;12.23;;;3.15;;
42098;SDS011;27758;55.900;8.516;2023-07-31T00:44:56;14.60;;;2.95;;
42098;SDS011;27758;55.900;8.516;2023-07-31T00:47:22;12.13;;;3.03;;
42098;SDS011;27758;55.900;8.516;2023-07-31T00:49:48;13.13;;;3.33;;
42098;SDS011;27758;55.900;8.516;2023-07-31T00:52:13;11.85;;;3.15;;
42098;SDS011;27758;55.900;8.516;2023-07-31T00:54:39;15.30;;;3.78;;
42098;SDS011;27758;55.900;8.516;2023-07-31T00:57:05;8.73;;;2.42;;
42098;SDS011;27758;55.900;8.516;2023-07-31T00:59:33;9.98;;;2.45;;
42098;SDS011;27758;55.900;8.516;2023-07-31T01:01:59;13.50;;;3.05;;
42098;SDS011;27758;55.900;8.516;2023-07-31T01:04:25;19.13;;;3.20;;
42098;SDS011;27758;55.900;8.516;2023-07-31T01:06:59;12.52;;;2.65;;
42098;SDS011;27758;55.900;8.516;2023-07-31T01:12:26;23.20;;;3.83;;
42098;SDS011;27758;55.900;8.516;2023-07-31T01:17:26;18.65;;;4.13;;
42098;SDS011;27758;55.900;8.516;2023-07-31T01:19:52;15.30;;;3.78;;
42098;SDS011;27758;55.900;8.516;2023-07-31T01:28:07;16.05;;;4.22;;
42098;SDS011;27758;55.900;8.516;2023-07-31T01:30:40;17.45;;;3.03;;
42098;SDS011;27758;55.900;8.516;2023-07-31T01:33:08;16.95;;;3.22;;
42098;SDS011;27758;55.900;8.516;2023-07-31T01:35:35;18.83;;;3.58;;
42098;SDS011;27758;55.900;8.516;2023-07-31T01:38:01;12.95;;;3.00;;
42098;SDS011;27758;55.900;8.516;2023-07-31T01:40:27;16.33;;;3.40;;
42098;SDS011;27758;55.900;8.516;2023-07-31T01:42:53;14.50;;;2.92;;
42098;SDS011;27758;55.900;8.516;2023-07-31T01:45:19;14.02;;;3.17;;
42098;SDS011;27758;55.900;8.516;2023-07-31T01:47:45;12.85;;;3.13;;
42098;SDS011;27758;55.900;8.516;2023-07-31T01:50:10;12.50;;;2.53;;
42098;SDS011;27758;55.900;8.516;2023-07-31T01:52:36;16.27;;;2.63;;
42098;SDS011;27758;55.900;8.516;2023-07-31T01:55:02;11.52;;;2.67;;
42098;SDS011;27758;55.900;8.516;2023-07-31T01:57:28;7.30;;;1.95;;
42098;SDS011;27758;55.900;8.516;2023-07-31T01:59:54;14.95;;;2.13;;
42098;SDS011;27758;55.900;8.516;2023-07-31T02:02:20;11.32;;;2.85;;
42098;SDS011;27758;55.900;8.516;2023-07-31T02:04:46;10.30;;;2.13;;
42098;SDS011;27758;55.900;8.516;2023-07-31T02:07:12;12.60;;;2.42;;
42098;SDS011;27758;55.900;8.516;2023-07-31T02:09:37;17.25;;;3.22;;
42098;SDS011;27758;55.900;8.516;2023-07-31T02:12:03;7.30;;;2.30;;
42098;SDS011;27758;55.900;8.516;2023-07-31T02:14:29;11.48;;;2.35;;
42098;SDS011;27758;55.900;8.516;2023-07-31T02:16:55;8.85;;;2.35;;
42098;SDS011;27758;55.900;8.516;2023-07-31T02:19:22;12.00;;;2.50;;
42098;SDS011;27758;55.900;8.516;2023-07-31T02:21:47;7.65;;;2.10;;
42098;SDS011;27758;55.900;8.516;2023-07-31T02:24:13;11.00;;;2.60;;
42098;SDS011;27758;55.900;8.516;2023-07-31T02:26:39;10.80;;;2.78;;
42098;SDS011;27758;55.900;8.516;2023-07-31T02:29:06;8.38;;;2.53;;
42098;SDS011;27758;55.900;8.516;2023-07-31T02:31:32;13.02;;;2.38;;
42098;SDS011;27758;55.900;8.516;2023-07-31T02:33:57;13.70;;;2.25;;
42098;SDS011;27758;55.900;8.516;2023-07-31T02:36:23;9.73;;;2.35;;
42098;SDS011;27758;55.900;8.516;2023-07-31T02:38:49;19.83;;;3.25;;
42098;SDS011;27758;55.900;8.516;2023-07-31T02:41:14;17.35;;;3.30;;
42098;SDS011;27758;55.900;8.516;2023-07-31T02:43:40;14.45;;;3.08;;
42098;SDS011;27758;55.900;8.516;2023-07-31T02:46:06;19.40;;;2.80;;
42098;SDS011;27758;55.900;8.516;2023-07-31T02:48:32;11.57;;;2.60;;
42098;SDS011;27758;55.900;8.516;2023-07-31T02:50:57;18.98;;;3.00;;
42098;SDS011;27758;55.900;8.516;2023-07-31T02:53:23;10.52;;;2.13;;
42098;SDS011;27758;55.900;8.516;2023-07-31T02:55:48;16.42;;;2.80;;
42098;SDS011;27758;55.900;8.516;2023-07-31T02:58:14;12.63;;;2.33;;
42098;SDS011;27758;55.900;8.516;2023-07-31T03:00:43;14.90;;;2.22;;
42098;SDS011;27758;55.900;8.516;2023-07-31T03:03:09;17.02;;;2.90;;
42098;SDS011;27758;55.900;8.516;2023-07-31T03:05:35;21.45;;;2.67;;
42098;SDS011;27758;55.900;8.516;2023-07-31T03:08:01;9.75;;;1.77;;
42098;SDS011;27758;55.900;8.516;2023-07-31T03:10:26;11.07;;;1.77;;
42098;SDS011;27758;55.900;8.516;2023-07-31T03:12:52;13.98;;;2.50;;
42098;SDS011;27758;55.900;8.516;2023-07-31T03:15:20;10.52;;;2.22;;
42098;SDS011;27758;55.900;8.516;2023-07-31T03:17:46;12.75;;;2.58;;
42098;SDS011;27758;55.900;8.516;2023-07-31T03:20:11;17.63;;;3.05;;
42098;SDS011;27758;55.900;8.516;2023-07-31T03:22:37;11.85;;;2.95;;
42098;SDS011;27758;55.900;8.516;2023-07-31T03:25:03;10.15;;;3.08;;
42098;SDS011;27758;55.900;8.516;2023-07-31T03:27:29;13.55;;;2.75;;
42098;SDS011;27758;55.900;8.516;2023-07-31T03:29:55;19.13;;;3.28;;
42098;SDS011;27758;55.900;8.516;2023-07-31T03:32:20;16.13;;;3.45;;
42098;SDS011;27758;55.900;8.516;2023-07-31T03:34:46;12.80;;;3.08;;
42098;SDS011;27758;55.900;8.516;2023-07-31T03:37:12;14.43;;;3.17;;
42098;SDS011;27758;55.900;8.516;2023-07-31T03:39:37;18.88;;;3.60;;
42098;SDS011;27758;55.900;8.516;2023-07-31T03:42:03;11.65;;;3.25;;
42098;SDS011;27758;55.900;8.516;2023-07-31T03:44:29;12.48;;;3.30;;
42098;SDS011;27758;55.900;8.516;2023-07-31T03:46:55;18.65;;;3.63;;
42098;SDS011;27758;55.900;8.516;2023-07-31T03:49:21;14.20;;;2.85;;
42098;SDS011;27758;55.900;8.516;2023-07-31T03:51:46;17.58;;;3.38;;
42098;SDS011;27758;55.900;8.516;2023-07-31T03:54:12;12.85;;;3.08;;
42098;SDS011;27758;55.900;8.516;2023-07-31T03:56:39;14.93;;;3.15;;
42098;SDS011;27758;55.900;8.516;2023-07-31T03:59:04;14.77;;;3.28;;
42098;SDS011;27758;55.900;8.516;2023-07-31T04:01:30;17.30;;;3.40;;
42098;SDS011;27758;55.900;8.516;2023-07-31T04:03:56;12.85;;;3.58;;
42098;SDS011;27758;55.900;8.516;2023-07-31T04:06:21;16.08;;;3.15;;
42098;SDS011;27758;55.900;8.516;2023-07-31T04:08:47;18.05;;;3.53;;
42098;SDS011;27758;55.900;8.516;2023-07-31T04:11:13;13.43;;;2.75;;
42098;SDS011;27758;55.900;8.516;2023-07-31T04:13:38;11.43;;;2.85;;
42098;SDS011;27758;55.900;8.516;2023-07-31T04:16:04;15.23;;;2.78;;
42098;SDS011;27758;55.900;8.516;2023-07-31T04:18:30;11.88;;;3.00;;
42098;SDS011;27758;55.900;8.516;2023-07-31T04:20:57;13.95;;;2.65;;
42098;SDS011;27758;55.900;8.516;2023-07-31T04:23:23;20.27;;;3.25;;
42098;SDS011;27758;55.900;8.516;2023-07-31T04:25:50;12.52;;;3.10;;
42098;SDS011;27758;55.900;8.516;2023-07-31T04:28:16;14.30;;;3.20;;
42098;SDS011;27758;55.900;8.516;2023-07-31T04:30:41;19.10;;;2.90;;
42098;SDS011;27758;55.900;8.516;2023-07-31T04:33:07;19.25;;;3.15;;
42098;SDS011;27758;55.900;8.516;2023-07-31T04:35:33;20.17;;;3.70;;
42098;SDS011;27758;55.900;8.516;2023-07-31T04:37:59;15.60;;;3.47;;
42098;SDS011;27758;55.900;8.516;2023-07-31T04:40:25;20.15;;;3.70;;
42098;SDS011;27758;55.900;8.516;2023-07-31T04:42:50;24.35;;;4.13;;
42098;SDS011;27758;55.900;8.516;2023-07-31T04:45:16;13.77;;;3.15;;
42098;SDS011;27758;55.900;8.516;2023-07-31T04:47:42;17.40;;;3.42;;
42098;SDS011;27758;55.900;8.516;2023-07-31T04:50:08;23.02;;;3.75;;
42098;SDS011;27758;55.900;8.516;2023-07-31T04:52:34;15.88;;;3.03;;
42098;SDS011;27758;55.900;8.516;2023-07-31T04:54:59;11.05;;;2.58;;
42098;SDS011;27758;55.900;8.516;2023-07-31T04:57:25;18.30;;;4.20;;
42098;SDS011;27758;55.900;8.516;2023-07-31T04:59:51;16.77;;;3.35;;
42098;SDS011;27758;55.900;8.516;2023-07-31T05:02:17;17.20;;;3.33;;
42098;SDS011;27758;55.900;8.516;2023-07-31T05:04:42;21.52;;;3.85;;
42098;SDS011;27758;55.900;8.516;2023-07-31T05:07:08;9.20;;;3.10;;
42098;SDS011;27758;55.900;8.516;2023-07-31T05:09:34;14.40;;;3.10;;
42098;SDS011;27758;55.900;8.516;2023-07-31T05:11:59;15.55;;;3.47;;
42098;SDS011;27758;55.900;8.516;2023-07-31T05:14:25;13.50;;;2.72;;
42098;SDS011;27758;55.900;8.516;2023-07-31T05:16:51;16.70;;;3.10;;
42098;SDS011;27758;55.900;8.516;2023-07-31T05:19:17;17.05;;;3.05;;
42098;SDS011;27758;55.900;8.516;2023-07-31T05:21:43;14.15;;;2.67;;
42098;SDS011;27758;55.900;8.516;2023-07-31T05:24:09;11.93;;;2.85;;
42098;SDS011;27758;55.900;8.516;2023-07-31T05:26:35;13.48;;;3.47;;
42098;SDS011;27758;55.900;8.516;2023-07-31T05:29:02;18.13;;;3.20;;
42098;SDS011;27758;55.900;8.516;2023-07-31T05:31:28;12.80;;;2.70;;
42098;SDS011;27758;55.900;8.516;2023-07-31T05:33:54;16.67;;;3.08;;
42098;SDS011;27758;55.900;8.516;2023-07-31T05:36:20;13.07;;;2.63;;
42098;SDS011;27758;55.900;8.516;2023-07-31T05:38:46;13.02;;;3.35;;
42098;SDS011;27758;55.900;8.516;2023-07-31T05:41:12;15.73;;;2.50;;
42098;SDS011;27758;55.900;8.516;2023-07-31T05:43:38;9.63;;;2.55;;
42098;SDS011;27758;55.900;8.516;2023-07-31T05:46:03;8.07;;;2.00;;
42098;SDS011;27758;55.900;8.516;2023-07-31T05:48:29;9.48;;;2.10;;
42098;SDS011;27758;55.900;8.516;2023-07-31T05:50:55;9.38;;;2.72;;
42098;SDS011;27758;55.900;8.516;2023-07-31T05:53:21;9.80;;;2.20;;
42098;SDS011;27758;55.900;8.516;2023-07-31T05:55:46;7.85;;;2.20;;
42098;SDS011;27758;55.900;8.516;2023-07-31T05:58:12;7.88;;;2.30;;
42098;SDS011;27758;55.900;8.516;2023-07-31T06:00:38;18.63;;;2.22;;
42098;SDS011;27758;55.900;8.516;2023-07-31T06:03:03;13.77;;;2.55;;
42098;SDS011;27758;55.900;8.516;2023-07-31T06:05:29;14.30;;;2.45;;
42098;SDS011;27758;55.900;8.516;2023-07-31T06:07:55;13.70;;;2.45;;
42098;SDS011;27758;55.900;8.516;2023-07-31T06:10:21;17.77;;;3.03;;
42098;SDS011;27758;55.900;8.516;2023-07-31T06:12:47;10.15;;;2.28;;
42098;SDS011;27758;55.900;8.516;2023-07-31T06:15:13;13.25;;;2.22;;
42098;SDS011;27758;55.900;8.516;2023-07-31T06:17:38;13.50;;;2.60;;
42098;SDS011;27758;55.900;8.516;2023-07-31T06:20:05;13.02;;;2.67;;
42098;SDS011;27758;55.900;8.516;2023-07-31T06:22:32;10.90;;;2.80;;
42098;SDS011;27758;55.900;8.516;2023-07-31T06:24:57;13.15;;;3.72;;
42098;SDS011;27758;55.900;8.516;2023-07-31T06:27:23;11.48;;;2.70;;
42098;SDS011;27758;55.900;8.516;2023-07-31T06:29:49;13.45;;;2.80;;
42098;SDS011;27758;55.900;8.516;2023-07-31T06:32:15;18.30;;;2.97;;
42098;SDS011;27758;55.900;8.516;2023-07-31T06:34:40;11.13;;;2.65;;
42098;SDS011;27758;55.900;8.516;2023-07-31T06:37:06;12.77;;;2.47;;
42098;SDS011;27758;55.900;8.516;2023-07-31T06:39:32;9.18;;;2.03;;
42098;SDS011;27758;55.900;8.516;2023-07-31T06:41:57;14.85;;;2.88;;
42098;SDS011;27758;55.900;8.516;2023-07-31T06:44:23;9.18;;;2.60;;
42098;SDS011;27758;55.900;8.516;2023-07-31T06:46:49;11.45;;;1.92;;
42098;SDS011;27758;55.900;8.516;2023-07-31T06:49:14;12.57;;;2.45;;
42098;SDS011;27758;55.900;8.516;2023-07-31T06:51:40;13.52;;;2.88;;
42098;SDS011;27758;55.900;8.516;2023-07-31T06:54:07;10.95;;;2.67;;
42098;SDS011;27758;55.900;8.516;2023-07-31T06:56:33;12.18;;;2.58;;
42098;SDS011;27758;55.900;8.516;2023-07-31T06:58:59;10.95;;;2.63;;
42098;SDS011;27758;55.900;8.516;2023-07-31T07:01:24;7.03;;;1.52;;
42098;SDS011;27758;55.900;8.516;2023-07-31T07:03:50;13.57;;;2.67;;
42098;SDS011;27758;55.900;8.516;2023-07-31T07:06:18;9.52;;;1.83;;
42098;SDS011;27758;55.900;8.516;2023-07-31T07:08:44;10.50;;;2.42;;
42098;SDS011;27758;55.900;8.516;2023-07-31T07:11:10;14.05;;;2.30;;
42098;SDS011;27758;55.900;8.516;2023-07-31T07:13:36;7.70;;;1.90;;
42098;SDS011;27758;55.900;8.516;2023-07-31T07:16:01;11.75;;;2.75;;
42098;SDS011;27758;55.900;8.516;2023-07-31T07:18:27;9.68;;;1.98;;
42098;SDS011;27758;55.900;8.516;2023-07-31T07:20:53;9.18;;;2.25;;
42098;SDS011;27758;55.900;8.516;2023-07-31T07:23:19;9.88;;;1.92;;
42098;SDS011;27758;55.900;8.516;2023-07-31T07:25:46;10.55;;;2.25;;
42098;SDS011;27758;55.900;8.516;2023-07-31T07:28:13;13.80;;;2.10;;
42098;SDS011;27758;55.900;8.516;2023-07-31T07:30:39;8.90;;;1.85;;
42098;SDS011;27758;55.900;8.516;2023-07-31T07:33:05;10.02;;;1.85;;
42098;SDS011;27758;55.900;8.516;2023-07-31T07:35:34;10.02;;;1.63;;
42098;SDS011;27758;55.900;8.516;2023-07-31T07:38:01;4.60;;;1.40;;
42098;SDS011;27758;55.900;8.516;2023-07-31T07:40:27;8.32;;;1.73;;
42098;SDS011;27758;55.900;8.516;2023-07-31T07:42:53;11.20;;;1.88;;
42098;SDS011;27758;55.900;8.516;2023-07-31T07:45:19;8.55;;;1.92;;
42098;SDS011;27758;55.900;8.516;2023-07-31T07:47:44;8.23;;;1.85;;
42098;SDS011;27758;55.900;8.516;2023-07-31T07:50:10;7.90;;;2.17;;
42098;SDS011;27758;55.900;8.516;2023-07-31T07:52:36;11.80;;;2.15;;
42098;SDS011;27758;55.900;8.516;2023-07-31T07:55:02;5.63;;;1.50;;
42098;SDS011;27758;55.900;8.516;2023-07-31T07:57:28;9.05;;;2.10;;
42098;SDS011;27758;55.900;8.516;2023-07-31T07:59:54;8.65;;;1.80;;
42098;SDS011;27758;55.900;8.516;2023-07-31T08:02:20;6.00;;;1.77;;
42098;SDS011;27758;55.900;8.516;2023-07-31T08:04:46;6.30;;;1.33;;
42098;SDS011;27758;55.900;8.516;2023-07-31T08:07:13;6.93;;;1.90;;
42098;SDS011;27758;55.900;8.516;2023-07-31T08:09:39;6.70;;;1.60;;
42098;SDS011;27758;55.900;8.516;2023-07-31T08:12:05;5.65;;;1.40;;
42098;SDS011;27758;55.900;8.516;2023-07-31T08:14:32;6.78;;;1.60;;
42098;SDS011;27758;55.900;8.516;2023-07-31T08:16:57;4.80;;;1.30;;
42098;SDS011;27758;55.900;8.516;2023-07-31T08:19:23;3.80;;;0.90;;
42098;SDS011;27758;55.900;8.516;2023-07-31T08:21:49;4.65;;;1.40;;
42098;SDS011;27758;55.900;8.516;2023-07-31T08:24:14;6.65;;;1.65;;
42098;SDS011;27758;55.900;8.516;2023-07-31T08:26:40;6.45;;;1.40;;
42098;SDS011;27758;55.900;8.516;2023-07-31T08:29:06;5.63;;;1.40;;
42098;SDS011;27758;55.900;8.516;2023-07-31T08:31:32;5.30;;;1.60;;
42098;SDS011;27758;55.900;8.516;2023-07-31T08:33:57;6.07;;;1.15;;
42098;SDS011;27758;55.900;8.516;2023-07-31T08:36:23;4.97;;;0.90;;
42098;SDS011;27758;55.900;8.516;2023-07-31T08:38:51;5.78;;;0.95;;
42098;SDS011;27758;55.900;8.516;2023-07-31T08:41:17;5.45;;;1.15;;
42098;SDS011;27758;55.900;8.516;2023-07-31T08:43:44;5.25;;;1.17;;
42098;SDS011;27758;55.900;8.516;2023-07-31T08:46:14;7.20;;;1.40;;
42098;SDS011;27758;55.900;8.516;2023-07-31T08:48:41;5.53;;;1.40;;
42098;SDS011;27758;55.900;8.516;2023-07-31T08:51:08;7.43;;;1.35;;
42098;SDS011;27758;55.900;8.516;2023-07-31T08:53:34;8.10;;;1.55;;
42098;SDS011;27758;55.900;8.516;2023-07-31T08:56:00;3.33;;;0.63;;
42098;SDS011;27758;55.900;8.516;2023-07-31T08:58:27;4.40;;;1.10;;
42098;SDS011;27758;55.900;8.516;2023-07-31T09:00:56;2.38;;;0.68;;
42098;SDS011;27758;55.900;8.516;2023-07-31T09:03:23;3.67;;;1.00;;
42098;SDS011;27758;55.900;8.516;2023-07-31T09:05:51;6.03;;;1.17;;
42098;SDS011;27758;55.900;8.516;2023-07-31T09:08:20;5.13;;;1.13;;
42098;SDS011;27758;55.900;8.516;2023-07-31T09:10:47;7.53;;;1.50;;
42098;SDS011;27758;55.900;8.516;2023-07-31T09:13:15;5.53;;;1.27;;
42098;SDS011;27758;55.900;8.516;2023-07-31T09:15:43;3.20;;;1.10;;
42098;SDS011;27758;55.900;8.516;2023-07-31T09:18:10;5.07;;;1.42;;
42098;SDS011;27758;55.900;8.516;2023-07-31T09:20:36;7.20;;;1.50;;
42098;SDS011;27758;55.900;8.516;2023-07-31T09:23:07;6.85;;;1.30;;
42098;SDS011;27758;55.900;8.516;2023-07-31T09:25:37;7.07;;;2.17;;
42098;SDS011;27758;55.900;8.516;2023-07-31T09:28:05;10.82;;;2.33;;
42098;SDS011;27758;55.900;8.516;2023-07-31T09:30:43;8.75;;;2.15;;
42098;SDS011;27758;55.900;8.516;2023-07-31T09:33:13;7.68;;;2.08;;
42098;SDS011;27758;55.900;8.516;2023-07-31T09:35:39;6.85;;;1.40;;
42098;SDS011;27758;55.900;8.516;2023-07-31T09:38:12;5.00;;;1.27;;
42098;SDS011;27758;55.900;8.516;2023-07-31T09:40:39;5.85;;;1.98;;
42098;SDS011;27758;55.900;8.516;2023-07-31T09:43:08;5.78;;;1.30;;
42098;SDS011;27758;55.900;8.516;2023-07-31T09:45:38;5.78;;;1.30;;
42098;SDS011;27758;55.900;8.516;2023-07-31T09:48:12;8.75;;;1.65;;
42098;SDS011;27758;55.900;8.516;2023-07-31T09:50:42;5.80;;;1.23;;
42098;SDS011;27758;55.900;8.516;2023-07-31T09:53:12;7.00;;;1.50;;
42098;SDS011;27758;55.900;8.516;2023-07-31T09:55:39;8.93;;;1.60;;
42098;SDS011;27758;55.900;8.516;2023-07-31T09:58:07;5.72;;;1.17;;
42098;SDS011;27758;55.900;8.516;2023-07-31T10:00:37;7.93;;;1.52;;
42098;SDS011;27758;55.900;8.516;2023-07-31T10:03:06;6.72;;;1.38;;
42098;SDS011;27758;55.900;8.516;2023-07-31T10:05:34;11.85;;;1.63;;
42098;SDS011;27758;55.900;8.516;2023-07-31T10:08:03;4.85;;;1.25;;
42098;SDS011;27758;55.900;8.516;2023-07-31T10:10:29;7.22;;;1.70;;
42098;SDS011;27758;55.900;8.516;2023-07-31T10:12:59;4.72;;;1.25;;
42098;SDS011;27758;55.900;8.516;2023-07-31T10:17:51;4.47;;;1.80;;
42098;SDS011;27758;55.900;8.516;2023-07-31T10:20:19;5.65;;;1.00;;
42098;SDS011;27758;55.900;8.516;2023-07-31T10:22:46;5.75;;;0.85;;
42098;SDS011;27758;55.900;8.516;2023-07-31T10:25:13;5.75;;;1.40;;
42098;SDS011;27758;55.900;8.516;2023-07-31T10:27:41;4.57;;;0.95;;
42098;SDS011;27758;55.900;8.516;2023-07-31T10:30:17;5.80;;;1.27;;
42098;SDS011;27758;55.900;8.516;2023-07-31T10:32:45;4.93;;;1.30;;
42098;SDS011;27758;55.900;8.516;2023-07-31T10:35:14;5.20;;;1.10;;
42098;SDS011;27758;55.900;8.516;2023-07-31T10:37:41;3.78;;;0.88;;
42098;SDS011;27758;55.900;8.516;2023-07-31T10:40:26;3.88;;;1.13;;
42098;SDS011;27758;55.900;8.516;2023-07-31T10:42:56;5.25;;;1.20;;
42098;SDS011;27758;55.900;8.516;2023-07-31T10:45:33;5.15;;;1.13;;
42098;SDS011;27758;55.900;8.516;2023-07-31T10:48:03;5.50;;;1.20;;
42098;SDS011;27758;55.900;8.516;2023-07-31T10:50:37;5.22;;;1.30;;
42098;SDS011;27758;55.900;8.516;2023-07-31T10:53:10;2.63;;;1.02;;
42098;SDS011;27758;55.900;8.516;2023-07-31T10:56:00;4.20;;;0.88;;
42098;SDS011;27758;55.900;8.516;2023-07-31T10:58:35;4.07;;;0.70;;
42098;SDS011;27758;55.900;8.516;2023-07-31T11:01:03;4.32;;;1.23;;
42098;SDS011;27758;55.900;8.516;2023-07-31T11:06:12;6.10;;;1.10;;
42098;SDS011;27758;55.900;8.516;2023-07-31T11:08:48;3.33;;;1.00;;
42098;SDS011;27758;55.900;8.516;2023-07-31T11:11:16;4.22;;;1.23;;
42098;SDS011;27758;55.900;8.516;2023-07-31T11:13:44;5.45;;;1.00;;
42098;SDS011;27758;55.900;8.516;2023-07-31T11:16:11;9.95;;;1.45;;
42098;SDS011;27758;55.900;8.516;2023-07-31T11:18:41;5.47;;;1.05;;
42098;SDS011;27758;55.900;8.516;2023-07-31T11:21:08;2.88;;;0.80;;
42098;SDS011;27758;55.900;8.516;2023-07-31T11:23:40;4.32;;;1.17;;
42098;SDS011;27758;55.900;8.516;2023-07-31T11:26:06;2.45;;;0.60;;
42098;SDS011;27758;55.900;8.516;2023-07-31T11:28:33;3.63;;;0.90;;
42098;SDS011;27758;55.900;8.516;2023-07-31T11:30:59;3.15;;;0.98;;
42098;SDS011;27758;55.900;8.516;2023-07-31T11:33:26;4.55;;;1.02;;
42098;SDS011;27758;55.900;8.516;2023-07-31T11:35:52;2.78;;;0.70;;
42098;SDS011;27758;55.900;8.516;2023-07-31T11:38:21;4.28;;;1.02;;
42098;SDS011;27758;55.900;8.516;2023-07-31T11:40:52;5.07;;;1.27;;
42098;SDS011;27758;55.900;8.516;2023-07-31T11:43:19;4.53;;;0.90;;
42098;SDS011;27758;55.900;8.516;2023-07-31T11:45:50;3.40;;;0.85;;
42098;SDS011;27758;55.900;8.516;2023-07-31T11:48:24;5.40;;;1.02;;
42098;SDS011;27758;55.900;8.516;2023-07-31T11:50:52;4.20;;;1.20;;
42098;SDS011;27758;55.900;8.516;2023-07-31T11:53:36;6.43;;;1.30;;
42098;SDS011;27758;55.900;8.516;2023-07-31T11:56:06;4.15;;;1.10;;
42098;SDS011;27758;55.900;8.516;2023-07-31T11:58:34;5.63;;;1.38;;
42098;SDS011;27758;55.900;8.516;2023-07-31T12:01:00;5.10;;;1.08;;
42098;SDS011;27758;55.900;8.516;2023-07-31T12:03:27;5.72;;;0.82;;
42098;SDS011;27758;55.900;8.516;2023-07-31T12:05:53;3.50;;;1.00;;
42098;SDS011;27758;55.900;8.516;2023-07-31T12:08:23;4.57;;;1.17;;
42098;SDS011;27758;55.900;8.516;2023-07-31T12:10:50;5.20;;;1.05;;
42098;SDS011;27758;55.900;8.516;2023-07-31T12:13:25;5.75;;;1.10;;
42098;SDS011;27758;55.900;8.516;2023-07-31T12:15:55;3.28;;;0.88;;
42098;SDS011;27758;55.900;8.516;2023-07-31T12:18:23;4.45;;;1.20;;
42098;SDS011;27758;55.900;8.516;2023-07-31T12:20:57;5.03;;;0.90;;
42098;SDS011;27758;55.900;8.516;2023-07-31T12:23:30;3.08;;;1.00;;
42098;SDS011;27758;55.900;8.516;2023-07-31T12:26:09;4.35;;;0.90;;
42098;SDS011;27758;55.900;8.516;2023-07-31T12:28:43;5.18;;;0.82;;
42098;SDS011;27758;55.900;8.516;2023-07-31T12:31:11;4.88;;;1.23;;
42098;SDS011;27758;55.900;8.516;2023-07-31T12:33:45;7.13;;;1.33;;
42098;SDS011;27758;55.900;8.516;2023-07-31T12:36:17;6.90;;;1.00;;
42098;SDS011;27758;55.900;8.516;2023-07-31T12:38:45;4.63;;;1.13;;
42098;SDS011;27758;55.900;8.516;2023-07-31T12:41:11;4.35;;;1.17;;
42098;SDS011;27758;55.900;8.516;2023-07-31T12:43:38;4.85;;;0.95;;
42098;SDS011;27758;55.900;8.516;2023-07-31T12:46:05;3.15;;;1.00;;
42098;SDS011;27758;55.900;8.516;2023-07-31T12:48:33;4.47;;;0.80;;
42098;SDS011;27758;55.900;8.516;2023-07-31T12:50:59;8.02;;;1.15;;
42098;SDS011;27758;55.900;8.516;2023-07-31T12:53:25;4.03;;;0.82;;
42098;SDS011;27758;55.900;8.516;2023-07-31T12:55:51;6.05;;;1.20;;
42098;SDS011;27758;55.900;8.516;2023-07-31T12:58:16;4.28;;;1.20;;
42098;SDS011;27758;55.900;8.516;2023-07-31T13:00:42;3.47;;;0.90;;
42098;SDS011;27758;55.900;8.516;2023-07-31T13:03:08;5.85;;;0.90;;
42098;SDS011;27758;55.900;8.516;2023-07-31T13:05:34;3.97;;;0.98;;
42098;SDS011;27758;55.900;8.516;2023-07-31T13:08:00;2.38;;;0.60;;
42098;SDS011;27758;55.900;8.516;2023-07-31T13:10:26;3.85;;;0.80;;
42098;SDS011;27758;55.900;8.516;2023-07-31T13:12:53;4.30;;;0.98;;
42098;SDS011;27758;55.900;8.516;2023-07-31T13:15:19;8.07;;;1.08;;
42098;SDS011;27758;55.900;8.516;2023-07-31T13:17:45;3.08;;;1.00;;
42098;SDS011;27758;55.900;8.516;2023-07-31T13:20:12;3.28;;;0.85;;
42098;SDS011;27758;55.900;8.516;2023-07-31T13:22:38;4.95;;;1.23;;
42098;SDS011;27758;55.900;8.516;2023-07-31T13:25:05;3.55;;;0.88;;
42098;SDS011;27758;55.900;8.516;2023-07-31T13:27:31;4.00;;;0.93;;
42098;SDS011;27758;55.900;8.516;2023-07-31T13:29:57;7.80;;;1.23;;
42098;SDS011;27758;55.900;8.516;2023-07-31T13:32:23;6.25;;;1.48;;
42098;SDS011;27758;55.900;8.516;2023-07-31T13:34:49;3.03;;;0.80;;
42098;SDS011;27758;55.900;8.516;2023-07-31T13:37:15;4.00;;;1.25;;
42098;SDS011;27758;55.900;8.516;2023-07-31T13:39:41;3.28;;;1.00;;
42098;SDS011;27758;55.900;8.516;2023-07-31T13:42:08;4.75;;;0.57;;
42098;SDS011;27758;55.900;8.516;2023-07-31T13:44:43;4.63;;;1.08;;
42098;SDS011;27758;55.900;8.516;2023-07-31T13:47:08;4.47;;;1.10;;
42098;SDS011;27758;55.900;8.516;2023-07-31T13:49:34;4.95;;;1.00;;
42098;SDS011;27758;55.900;8.516;2023-07-31T13:52:01;2.95;;;0.85;;
42098;SDS011;27758;55.900;8.516;2023-07-31T13:54:27;1.98;;;0.80;;
42098;SDS011;27758;55.900;8.516;2023-07-31T13:56:52;3.05;;;0.93;;
42098;SDS011;27758;55.900;8.516;2023-07-31T13:59:18;5.82;;;1.33;;
42098;SDS011;27758;55.900;8.516;2023-07-31T14:01:45;3.65;;;1.25;;
42098;SDS011;27758;55.900;8.516;2023-07-31T14:04:11;2.92;;;1.00;;
42098;SDS011;27758;55.900;8.516;2023-07-31T14:06:37;5.38;;;1.20;;
42098;SDS011;27758;55.900;8.516;2023-07-31T14:09:03;4.78;;;1.10;;
42098;SDS011;27758;55.900;8.516;2023-07-31T14:11:30;4.30;;;0.82;;
42098;SDS011;27758;55.900;8.516;2023-07-31T14:13:56;3.10;;;1.00;;
42098;SDS011;27758;55.900;8.516;2023-07-31T14:16:22;4.68;;;0.80;;
42098;SDS011;27758;55.900;8.516;2023-07-31T14:18:48;6.72;;;1.13;;
42098;SDS011;27758;55.900;8.516;2023-07-31T14:21:14;4.38;;;0.88;;
42098;SDS011;27758;55.900;8.516;2023-07-31T14:23:40;5.55;;;1.10;;
42098;SDS011;27758;55.900;8.516;2023-07-31T14:26:06;5.20;;;1.00;;
42098;SDS011;27758;55.900;8.516;2023-07-31T14:28:32;2.78;;;1.13;;
42098;SDS011;27758;55.900;8.516;2023-07-31T14:30:58;3.55;;;0.90;;
42098;SDS011;27758;55.900;8.516;2023-07-31T14:33:24;3.33;;;1.05;;
42098;SDS011;27758;55.900;8.516;2023-07-31T14:35:49;5.43;;;1.25;;
42098;SDS011;27758;55.900;8.516;2023-07-31T14:38:15;3.85;;;0.95;;
42098;SDS011;27758;55.900;8.516;2023-07-31T14:40:41;2.38;;;0.88;;
42098;SDS011;27758;55.900;8.516;2023-07-31T14:43:07;3.65;;;1.10;;
42098;SDS011;27758;55.900;8.516;2023-07-31T14:45:32;7.45;;;1.40;;
42098;SDS011;27758;55.900;8.516;2023-07-31T14:47:58;5.57;;;1.05;;
42098;SDS011;27758;55.900;8.516;2023-07-31T14:50:24;2.22;;;0.70;;
42098;SDS011;27758;55.900;8.516;2023-07-31T14:52:50;6.90;;;0.90;;
42098;SDS011;27758;55.900;8.516;2023-07-31T14:55:17;3.03;;;0.60;;